Terminal Aerodrome Forecast
Issued by NWS Twin Cities, MN

Home | Current Version | Previous Version | Text Only | Print | Product List | Glossary Off
Versions: 1 2 3 4 5 6 7 8 9 10 11 12

000
FTUS43 KMPX 020520
TAFEAU
TAF
KEAU 020520Z 0206/0306 19005KT P6SM SCT050 BKN090
     FM020900 20004KT P6SM SCT090
     FM021600 21010KT P6SM FEW060
     FM030100 17007KT P6SM SCT060=

USA.gov is the U.S. government's official web portal to all federal, state and local government web resources and services.